createdAt,value
2023-02-17T00:00:00.165Z,6.70
2023-02-17T00:03:25.118Z,7.03
2023-02-17T00:06:25.110Z,6.30
2023-02-17T00:09:52.056Z,6.70
2023-02-17T00:12:52.187Z,7.10
2023-02-17T00:16:04.620Z,6.55
2023-02-17T00:19:17.130Z,7.25
2023-02-17T00:22:29.150Z,7.03
2023-02-17T00:25:43.260Z,7.77
2023-02-17T00:29:07.222Z,7.20
2023-02-17T00:32:19.244Z,6.70
2023-02-17T00:35:31.216Z,6.83
2023-02-17T00:38:31.230Z,7.10
2023-02-17T00:41:58.274Z,7.17
2023-02-17T00:44:58.195Z,7.30
2023-02-17T00:48:10.337Z,8.03
2023-02-17T00:51:22.304Z,8.00
2023-02-17T00:54:34.283Z,8.17
2023-02-17T00:57:48.276Z,7.75
2023-02-17T01:01:00.437Z,8.53
2023-02-17T01:04:25.310Z,8.65
2023-02-17T01:07:37.326Z,7.65
2023-02-17T01:10:49.397Z,8.20
2023-02-17T01:14:15.357Z,8.47
2023-02-17T01:17:28.445Z,7.90
2023-02-17T01:20:41.381Z,8.73
2023-02-17T01:23:41.338Z,8.57
2023-02-17T01:27:05.355Z,8.65
2023-02-17T01:30:19.442Z,8.53
2023-02-17T01:33:34.441Z,9.90
2023-02-17T01:36:46.468Z,9.33
2023-02-17T01:39:58.441Z,9.97
2023-02-17T01:42:58.482Z,10.15
2023-02-17T01:46:27.444Z,9.77
2023-02-17T01:49:47.448Z,9.23
2023-02-17T01:53:12.495Z,10.03
2023-02-17T01:56:36.659Z,9.85
2023-02-17T01:59:48.449Z,9.77
2023-02-17T02:03:02.593Z,10.60
2023-02-17T02:06:28.418Z,10.43
2023-02-17T02:09:40.512Z,9.97
2023-02-17T02:13:04.498Z,11.85
2023-02-17T02:16:30.590Z,11.60
2023-02-17T02:19:54.544Z,10.63
2023-02-17T02:23:34.611Z,10.47
2023-02-17T02:26:50.605Z,11.75
2023-02-17T02:30:21.641Z,11.53
2023-02-17T02:33:36.565Z,11.40
2023-02-17T02:37:00.539Z,11.17
2023-02-17T02:40:12.613Z,11.83
2023-02-17T02:43:36.656Z,12.77
2023-02-17T02:46:36.592Z,12.27
2023-02-17T02:50:02.670Z,12.30
2023-02-17T02:53:38.638Z,12.75
2023-02-17T02:57:05.691Z,13.13
2023-02-17T03:00:31.658Z,12.43
2023-02-17T03:03:55.708Z,13.73
2023-02-17T03:07:21.717Z,13.93
2023-02-17T03:10:45.704Z,14.67
2023-02-17T03:14:00.701Z,15.40
2023-02-17T03:17:12.782Z,12.85
2023-02-17T03:20:24.703Z,14.50
2023-02-17T03:23:51.850Z,15.33
2023-02-17T03:26:54.760Z,15.73
2023-02-17T03:30:19.744Z,14.17
2023-02-17T03:33:31.781Z,15.45
2023-02-17T03:36:43.727Z,15.07
2023-02-17T03:39:57.829Z,15.13
2023-02-17T03:43:21.732Z,14.83
2023-02-17T03:46:35.802Z,16.03
2023-02-17T03:49:47.870Z,14.60
2023-02-17T03:52:47.908Z,17.30
2023-02-17T03:56:16.811Z,15.20
2023-02-17T03:59:28.900Z,16.57
2023-02-17T04:02:44.066Z,15.87
2023-02-17T04:05:53.934Z,15.27
2023-02-17T04:09:05.904Z,14.83
2023-02-17T04:12:31.901Z,15.43
2023-02-17T04:15:31.924Z,15.30
2023-02-17T04:18:55.896Z,15.07
2023-02-17T04:21:55.971Z,14.30
2023-02-17T04:25:08.904Z,14.50
2023-02-17T04:28:22.988Z,14.63
2023-02-17T04:31:47.060Z,14.20
2023-02-17T04:34:47.005Z,14.13
2023-02-17T04:37:58.966Z,14.73
2023-02-17T04:40:58.963Z,13.87
2023-02-17T04:44:24.954Z,14.37
2023-02-17T04:47:25.944Z,13.33
2023-02-17T04:50:38.018Z,12.77
2023-02-17T04:53:38.008Z,13.03
2023-02-17T04:56:50.015Z,14.05
2023-02-17T05:00:04.036Z,12.17
2023-02-17T05:03:28.067Z,13.07
2023-02-17T05:06:28.129Z,12.50
2023-02-17T05:09:53.033Z,12.23
2023-02-17T05:13:05.092Z,11.47
2023-02-17T05:16:32.012Z,11.55
2023-02-17T05:19:32.115Z,12.05
2023-02-17T05:22:45.043Z,11.30
2023-02-17T05:25:45.165Z,10.83
2023-02-17T05:28:57.117Z,11.05
2023-02-17T05:32:11.164Z,10.80
2023-02-17T05:35:35.207Z,10.75
2023-02-17T05:38:47.121Z,11.05
2023-02-17T05:42:00.208Z,10.70
2023-02-17T05:45:00.159Z,10.43
2023-02-17T05:48:26.124Z,10.20
2023-02-17T05:51:27.254Z,10.03
2023-02-17T05:54:39.200Z,9.77
2023-02-17T05:57:51.245Z,9.15
2023-02-17T06:01:03.186Z,8.87
2023-02-17T06:04:29.288Z,9.67
2023-02-17T06:07:29.227Z,9.17
2023-02-17T06:10:43.216Z,9.77
2023-02-17T06:13:43.246Z,10.33
2023-02-17T06:16:56.286Z,9.55
2023-02-17T06:20:09.275Z,10.07
2023-02-17T06:23:33.322Z,9.45
2023-02-17T06:26:33.233Z,8.73
2023-02-17T06:29:47.383Z,9.57
2023-02-17T06:32:47.373Z,9.87
2023-02-17T06:36:14.305Z,10.30
2023-02-17T06:39:14.355Z,9.60
2023-02-17T06:42:26.326Z,11.00
2023-02-17T06:45:38.444Z,11.73
2023-02-17T06:48:50.364Z,10.90
2023-02-17T06:52:04.331Z,10.00
2023-02-17T06:55:28.408Z,11.33
2023-02-17T06:58:28.445Z,12.27
2023-02-17T07:01:41.404Z,12.27
2023-02-17T07:04:53.409Z,13.40
2023-02-17T07:08:19.432Z,12.57
2023-02-17T07:11:31.454Z,13.07
2023-02-17T07:14:55.470Z,13.87
2023-02-17T07:18:08.405Z,13.30
2023-02-17T07:21:32.438Z,13.10
2023-02-17T07:24:47.461Z,13.30
2023-02-17T07:27:59.509Z,13.67
2023-02-17T07:30:59.531Z,13.33
2023-02-17T07:34:11.527Z,13.15
2023-02-17T07:37:11.613Z,14.20
2023-02-17T07:40:37.587Z,13.10
2023-02-17T07:43:37.482Z,12.70
2023-02-17T07:47:01.532Z,12.37
2023-02-17T07:50:01.600Z,11.77
2023-02-17T07:53:14.585Z,12.37
2023-02-17T07:56:28.633Z,12.50
2023-02-17T07:59:52.612Z,12.43
2023-02-17T08:03:00.612Z,11.93
2023-02-17T08:06:13.658Z,11.73
2023-02-17T08:09:19.569Z,11.67
2023-02-17T08:13:05.977Z,10.73
2023-02-17T08:16:06.124Z,12.57
2023-02-17T08:19:17.628Z,11.95
2023-02-17T08:22:17.705Z,10.70
2023-02-17T08:25:30.705Z,11.67
2023-02-17T08:28:44.672Z,11.50
2023-02-17T08:31:56.738Z,11.30
2023-02-17T08:35:08.646Z,12.27
2023-02-17T08:38:20.720Z,12.40
2023-02-17T08:41:38.706Z,12.30
2023-02-17T08:45:04.796Z,11.75
2023-02-17T08:48:04.736Z,11.80
2023-02-17T08:51:28.691Z,12.47
2023-02-17T08:54:28.722Z,12.10
2023-02-17T08:57:40.761Z,12.90
2023-02-17T09:00:54.817Z,10.75
2023-02-17T09:04:18.903Z,12.05
2023-02-17T09:07:30.826Z,10.77
2023-02-17T09:10:55.777Z,11.05
2023-02-17T09:13:55.841Z,11.33
2023-02-17T09:17:20.778Z,11.20
2023-02-17T09:20:32.838Z,11.03
2023-02-17T09:23:57.883Z,10.20
2023-02-17T09:27:09.879Z,10.13
2023-02-17T09:30:22.931Z,10.13
2023-02-17T09:33:36.850Z,11.03
2023-02-17T09:37:02.873Z,8.80
2023-02-17T09:40:14.993Z,9.85
2023-02-17T09:43:38.972Z,9.30
2023-02-17T09:47:01.350Z,9.30
2023-02-17T09:50:17.972Z,7.93
2023-02-17T09:53:29.888Z,8.10
2023-02-17T09:56:53.981Z,7.40
2023-02-17T10:00:06.953Z,7.30
2023-02-17T10:03:31.191Z,7.33
2023-02-17T10:06:45.001Z,7.70
2023-02-17T10:10:10.005Z,7.67
2023-02-17T10:13:23.096Z,7.27
2023-02-17T10:16:47.055Z,6.77
2023-02-17T10:19:58.985Z,7.27
2023-02-17T10:23:25.088Z,6.55
2023-02-17T10:26:41.920Z,6.00
2023-02-17T10:30:06.060Z,5.33
2023-02-17T10:33:35.065Z,5.97
2023-02-17T10:37:02.141Z,5.07
2023-02-17T10:40:16.005Z,5.75
2023-02-17T10:43:40.131Z,4.85
2023-02-17T10:46:52.096Z,5.03
2023-02-17T10:50:16.108Z,5.03
2023-02-17T10:53:28.135Z,4.87
2023-02-17T10:56:54.194Z,5.13
2023-02-17T11:00:06.144Z,6.30
2023-02-17T11:03:18.197Z,4.70
2023-02-17T11:06:30.184Z,4.73
2023-02-17T11:09:57.198Z,4.50
2023-02-17T11:13:10.204Z,4.10
2023-02-17T11:16:44.354Z,4.80
2023-02-17T11:19:56.235Z,4.13
2023-02-17T11:23:24.204Z,4.57
2023-02-17T11:26:36.231Z,4.40
2023-02-17T11:30:02.246Z,4.93
2023-02-17T11:33:16.275Z,4.37
2023-02-17T11:36:46.290Z,4.20
2023-02-17T11:40:01.388Z,4.00
2023-02-17T11:43:25.235Z,4.50
2023-02-17T11:46:44.347Z,4.07
2023-02-17T11:50:26.137Z,4.30
2023-02-17T11:53:33.293Z,3.83
2023-02-17T11:56:58.404Z,3.87
2023-02-17T12:00:15.313Z,3.97
2023-02-17T12:03:54.528Z,4.00
2023-02-17T12:07:09.374Z,3.97
2023-02-17T12:10:35.363Z,4.30
2023-02-17T12:13:49.446Z,3.60
2023-02-17T12:17:13.414Z,3.60
2023-02-17T12:20:26.413Z,3.70
2023-02-17T12:23:58.428Z,3.65
2023-02-17T12:27:10.439Z,3.17
2023-02-17T12:30:39.558Z,3.73
2023-02-17T12:34:00.488Z,3.87
2023-02-17T12:37:24.410Z,3.03
2023-02-17T12:40:39.478Z,3.70
2023-02-17T12:44:04.444Z,3.10
2023-02-17T12:47:16.464Z,2.63
2023-02-17T12:50:40.571Z,3.00
2023-02-17T12:53:55.492Z,2.90
2023-02-17T12:57:22.536Z,3.10
2023-02-17T13:00:25.526Z,2.53
2023-02-17T13:03:53.581Z,2.80
2023-02-17T13:07:05.496Z,2.70
2023-02-17T13:10:30.483Z,2.97
2023-02-17T13:13:51.593Z,2.63
2023-02-17T13:17:16.542Z,2.70
2023-02-17T13:20:29.616Z,2.53
2023-02-17T13:23:58.603Z,2.40
2023-02-17T13:26:58.718Z,2.40
2023-02-17T13:30:27.658Z,2.00
2023-02-17T13:33:50.594Z,2.60
2023-02-17T13:37:03.567Z,2.30
2023-02-17T13:40:14.725Z,2.53
2023-02-17T13:43:39.643Z,2.03
2023-02-17T13:46:53.724Z,2.70
2023-02-17T13:50:17.747Z,2.73
2023-02-17T13:53:31.674Z,3.20
2023-02-17T13:56:43.717Z,3.57
2023-02-17T13:59:43.747Z,2.27
2023-02-17T14:03:11.767Z,2.60
2023-02-17T14:06:35.783Z,2.65
2023-02-17T14:09:48.743Z,2.80
2023-02-17T14:13:12.758Z,2.57
2023-02-17T14:16:24.766Z,2.50
2023-02-17T14:19:53.760Z,2.30
2023-02-17T14:23:03.702Z,2.90
2023-02-17T14:26:06.097Z,2.80
2023-02-17T14:29:17.797Z,2.95
2023-02-17T14:32:53.776Z,2.20
2023-02-17T14:36:15.947Z,2.87
2023-02-17T14:39:39.816Z,2.67
2023-02-17T14:42:39.834Z,2.70
2023-02-17T14:46:03.910Z,2.73
2023-02-17T14:49:15.867Z,2.90
2023-02-17T14:52:41.819Z,2.60
2023-02-17T14:55:54.851Z,2.37
2023-02-17T14:59:06.904Z,2.33
2023-02-17T15:02:06.848Z,3.03
2023-02-17T15:05:19.894Z,2.20
2023-02-17T15:08:34.952Z,2.50
2023-02-17T15:11:58.923Z,2.37
2023-02-17T15:15:11.002Z,2.53
2023-02-17T15:18:35.000Z,2.67
2023-02-17T15:21:48.934Z,2.40
2023-02-17T15:25:14.922Z,2.15
2023-02-17T15:28:14.945Z,2.40
2023-02-17T15:31:39.099Z,2.40
2023-02-17T15:34:50.969Z,2.10
2023-02-17T15:38:15.041Z,2.60
2023-02-17T15:41:31.498Z,2.00
2023-02-17T15:44:53.013Z,2.20
2023-02-17T15:48:05.010Z,2.30
2023-02-17T15:51:15.052Z,1.73
2023-02-17T15:54:15.076Z,2.00
2023-02-17T15:57:43.063Z,2.00
2023-02-17T16:00:56.215Z,2.50
2023-02-17T16:04:20.141Z,2.25
2023-02-17T16:07:20.051Z,1.80
2023-02-17T16:10:44.114Z,1.93
2023-02-17T16:13:58.313Z,2.40
2023-02-17T16:17:10.101Z,2.47
2023-02-17T16:20:10.119Z,2.20
2023-02-17T16:23:22.066Z,1.33
2023-02-17T16:26:37.182Z,1.70
2023-02-17T16:30:04.314Z,1.97
2023-02-17T16:33:16.146Z,1.70
2023-02-17T16:36:40.203Z,2.40
2023-02-17T16:39:40.235Z,2.20
2023-02-17T16:42:53.238Z,2.07
2023-02-17T16:46:07.698Z,1.80
2023-02-17T16:49:36.441Z,1.90
2023-02-17T16:52:48.257Z,1.47
2023-02-17T16:56:12.234Z,1.83
2023-02-17T16:59:24.239Z,2.03
2023-02-17T17:02:55.273Z,1.53
2023-02-17T17:05:56.221Z,1.73
2023-02-17T17:09:08.382Z,1.60
2023-02-17T17:12:08.298Z,1.90
2023-02-17T17:15:32.328Z,1.73
2023-02-17T17:18:46.351Z,1.40
2023-02-17T17:22:13.321Z,1.50
2023-02-17T17:25:13.288Z,1.50
2023-02-17T17:28:37.348Z,2.20
2023-02-17T17:31:49.467Z,1.73
2023-02-17T17:35:15.432Z,1.30
2023-02-17T17:38:27.369Z,1.33
2023-02-17T17:41:51.403Z,1.80
2023-02-17T17:44:51.433Z,2.30
2023-02-17T17:48:03.439Z,1.57
2023-02-17T17:51:17.370Z,1.67
2023-02-17T17:54:29.423Z,2.00
2023-02-17T17:57:29.466Z,1.50
2023-02-17T18:00:42.536Z,1.97
2023-02-17T18:04:06.487Z,1.40
2023-02-17T18:07:20.491Z,1.90
2023-02-17T18:10:44.498Z,1.80
2023-02-17T18:13:56.466Z,1.40
2023-02-17T18:17:08.560Z,1.70
2023-02-17T18:20:20.581Z,2.13
2023-02-17T18:23:48.541Z,1.40
2023-02-17T18:26:48.556Z,1.15
2023-02-17T18:30:00.595Z,1.90
2023-02-17T18:33:12.562Z,1.37
2023-02-17T18:36:39.559Z,1.53
2023-02-17T18:39:53.562Z,1.50
2023-02-17T18:43:05.658Z,2.05
2023-02-17T18:46:06.974Z,1.50
2023-02-17T18:49:31.584Z,2.07
2023-02-17T18:52:31.614Z,1.70
2023-02-17T18:55:58.586Z,1.77
2023-02-17T18:59:10.622Z,1.67
2023-02-17T19:02:35.659Z,1.70
2023-02-17T19:05:35.592Z,1.50
2023-02-17T19:08:47.641Z,1.63
2023-02-17T19:12:01.661Z,1.47
2023-02-17T19:15:26.645Z,1.33
2023-02-17T19:18:26.664Z,1.40
2023-02-17T19:25:03.697Z,1.30
2023-02-17T19:28:29.701Z,1.20
2023-02-17T19:31:41.834Z,1.10
2023-02-17T19:34:53.727Z,1.70
2023-02-17T19:37:53.769Z,1.70
2023-02-17T19:41:05.735Z,1.30
2023-02-17T19:44:19.751Z,1.70
2023-02-17T19:47:32.774Z,1.23
2023-02-17T19:50:44.776Z,1.20
2023-02-17T19:54:09.828Z,1.20
2023-02-17T19:57:09.801Z,1.60
2023-02-17T20:00:35.782Z,1.20
2023-02-17T20:03:59.841Z,1.60
2023-02-17T20:07:11.837Z,1.75
2023-02-17T20:10:35.884Z,1.25
2023-02-17T20:13:45.351Z,1.13
2023-02-17T20:17:01.924Z,1.37
2023-02-17T20:20:01.900Z,1.20
2023-02-17T20:23:25.958Z,1.30
2023-02-17T20:26:38.983Z,1.03
2023-02-17T20:30:04.150Z,1.47
2023-02-17T20:33:17.873Z,1.50
2023-02-17T20:36:42.925Z,1.97
2023-02-17T20:39:42.979Z,1.30
2023-02-17T20:42:54.933Z,2.05
2023-02-17T20:46:07.498Z,1.83
2023-02-17T20:49:34.975Z,1.40
2023-02-17T20:52:34.929Z,1.30
2023-02-17T20:55:59.033Z,1.90
2023-02-17T20:59:10.993Z,1.50
2023-02-17T21:02:35.000Z,1.17
2023-02-17T21:05:48.057Z,1.60
2023-02-17T21:09:13.042Z,1.00
2023-02-17T21:12:13.031Z,2.20
2023-02-17T21:15:38.036Z,1.73
2023-02-17T21:18:38.014Z,1.07
2023-02-17T21:22:04.081Z,1.20
2023-02-17T21:25:16.086Z,1.33
2023-02-17T21:28:28.152Z,1.00
2023-02-17T21:31:42.293Z,1.40
2023-02-17T21:34:54.122Z,1.80
2023-02-17T21:38:08.200Z,1.47
2023-02-17T21:41:33.149Z,1.50
2023-02-17T21:44:38.780Z,1.27
2023-02-17T21:47:51.147Z,1.73
2023-02-17T21:50:51.174Z,1.27
2023-02-17T21:54:17.188Z,1.20
2023-02-17T21:57:17.116Z,1.77
2023-02-17T22:00:31.174Z,1.27
2023-02-17T22:03:43.217Z,1.63
2023-02-17T22:06:55.241Z,1.87
2023-02-17T22:10:20.245Z,1.93
2023-02-17T22:13:32.188Z,1.63
2023-02-17T22:16:57.277Z,1.50
2023-02-17T22:19:57.294Z,1.60
2023-02-17T22:23:09.293Z,1.87
2023-02-17T22:26:23.286Z,1.23
2023-02-17T22:29:35.290Z,1.57
2023-02-17T22:32:35.317Z,1.60
2023-02-17T22:35:47.355Z,1.80
2023-02-17T22:38:47.369Z,1.90
2023-02-17T22:42:13.298Z,1.60
2023-02-17T22:45:13.347Z,1.70
2023-02-17T22:48:25.393Z,1.67
2023-02-17T22:51:37.495Z,2.00
2023-02-17T22:54:52.463Z,1.50
2023-02-17T22:58:06.318Z,1.47
2023-02-17T23:01:30.426Z,2.27
2023-02-17T23:04:30.441Z,2.30
2023-02-17T23:07:42.381Z,1.70
2023-02-17T23:10:42.419Z,2.43
2023-02-17T23:14:08.419Z,2.10
2023-02-17T23:17:20.403Z,2.23
2023-02-17T23:20:33.545Z,1.43
2023-02-17T23:23:45.418Z,1.80
2023-02-17T23:27:09.465Z,1.67
2023-02-17T23:30:23.502Z,1.20
2023-02-17T23:33:48.472Z,2.17
2023-02-17T23:37:00.465Z,2.35
2023-02-17T23:40:12.538Z,1.50
2023-02-17T23:43:24.504Z,2.10
2023-02-17T23:46:50.526Z,1.97
2023-02-17T23:49:50.512Z,2.23
2023-02-17T23:53:02.585Z,1.90
2023-02-17T23:56:27.562Z,1.83
2023-02-17T23:59:40.570Z,1.90
